Time;durP1;ratioP1;P1;durP2;ratioP2;P2;SDS_P1;SDS_P2;PMS_P1;PMS_P2;Temp;Humidity;BMP_temperature;BMP_pressure;BME280_temperature;BME280_humidity;BME280_pressure;Samples;Min_cycle;Max_cycle;Signal;HPM_P1;HPM_P2
2023/12/15 00:02:24;;;;;;;49.05;29.52;;;11.10;99.90;;;;;;4964853;28;20106;-86
2023/12/15 00:04:56;;;;;;;45.65;27.15;;;11.10;99.90;;;;;;4963807;28;20054;-85
2023/12/15 00:07:25;;;;;;;48.67;28.30;;;11.20;99.90;;;;;;4963647;28;20031;-92
2023/12/15 00:09:54;;;;;;;52.63;28.08;;;11.20;99.90;;;;;;4979868;28;20049;-85
2023/12/15 00:12:29;;;;;;;56.58;27.65;;;11.20;99.90;;;;;;4963721;28;20030;-86
2023/12/15 00:14:56;;;;;;;50.30;27.67;;;11.20;99.90;;;;;;4959405;28;20029;-87
2023/12/15 00:17:22;;;;;;;51.38;27.52;;;11.20;99.90;;;;;;4943981;28;20031;-86
2023/12/15 00:19:48;;;;;;;53.75;27.02;;;11.20;99.90;;;;;;4960113;28;20026;-86
2023/12/15 00:22:15;;;;;;;45.70;27.17;;;11.20;99.90;;;;;;4943769;28;20038;-86
2023/12/15 00:24:41;;;;;;;45.60;26.27;;;11.20;99.90;;;;;;4943960;28;20023;-87
2023/12/15 00:27:08;;;;;;;49.63;26.25;;;11.20;99.90;;;;;;4944102;28;20399;-90
2023/12/15 00:29:34;;;;;;;50.78;26.55;;;11.20;99.90;;;;;;4944063;28;20034;-89
2023/12/15 00:32:02;;;;;;;42.05;24.20;;;11.20;99.90;;;;;;4944074;28;20030;-87
2023/12/15 00:34:28;;;;;;;41.58;23.70;;;11.20;99.90;;;;;;4959311;28;20113;-88
2023/12/15 00:36:55;;;;;;;44.28;23.40;;;11.20;99.90;;;;;;4963046;28;20023;-88
2023/12/15 00:39:21;;;;;;;40.72;23.73;;;11.20;99.90;;;;;;4962419;28;20030;-88
2023/12/15 00:41:47;;;;;;;40.03;22.75;;;11.20;99.90;;;;;;4962830;28;20511;-88
2023/12/15 00:44:14;;;;;;;46.08;23.02;;;11.30;99.90;;;;;;4962737;28;20046;-89
2023/12/15 00:46:41;;;;;;;35.67;20.75;;;11.20;99.90;;;;;;4962730;28;20033;-88
2023/12/15 00:49:07;;;;;;;36.20;19.13;;;11.30;99.90;;;;;;4960776;28;20177;-88
2023/12/15 00:51:34;;;;;;;29.50;17.55;;;11.30;99.90;;;;;;4960059;28;20029;-88
2023/12/15 00:54:01;;;;;;;28.80;17.35;;;11.30;99.90;;;;;;4961752;28;20128;-89
2023/12/15 00:56:27;;;;;;;31.92;16.27;;;11.30;99.90;;;;;;4959087;28;20177;-89
2023/12/15 00:58:54;;;;;;;31.33;16.05;;;11.30;99.90;;;;;;4966633;28;20034;-89
2023/12/15 01:01:20;;;;;;;29.70;16.80;;;11.30;99.90;;;;;;4978392;28;20042;-88
2023/12/15 01:03:47;;;;;;;30.60;17.10;;;11.30;99.90;;;;;;4978365;28;20034;-89
2023/12/15 01:06:13;;;;;;;29.48;16.70;;;11.30;99.90;;;;;;4962586;28;20028;-89
2023/12/15 01:08:39;;;;;;;27.88;16.25;;;11.30;99.90;;;;;;4959178;28;20031;-89
2023/12/15 01:11:06;;;;;;;24.27;15.13;;;11.30;99.90;;;;;;4955584;28;20022;-90
2023/12/15 01:13:33;;;;;;;27.10;14.13;;;11.30;99.90;;;;;;4962473;28;20408;-89
2023/12/15 01:15:59;;;;;;;23.10;13.75;;;11.30;99.90;;;;;;4962113;28;20029;-88
2023/12/15 01:18:28;;;;;;;26.17;12.45;;;11.30;99.90;;;;;;4962838;28;20514;-89
2023/12/15 01:20:55;;;;;;;25.05;12.02;;;11.30;99.90;;;;;;4963189;28;20030;-89
2023/12/15 01:23:21;;;;;;;25.33;11.95;;;11.40;99.90;;;;;;4961915;28;20058;-89
2023/12/15 01:25:48;;;;;;;17.70;10.15;;;11.40;99.90;;;;;;4962192;28;20027;-88
2023/12/15 01:28:14;;;;;;;18.13;9.75;;;11.40;99.90;;;;;;4962160;28;20061;-89
2023/12/15 01:30:41;;;;;;;15.52;9.02;;;11.50;99.90;;;;;;4962147;28;20022;-89
2023/12/15 01:33:07;;;;;;;14.50;8.30;;;11.60;99.90;;;;;;4962064;28;20049;-88
2023/12/15 01:35:33;;;;;;;13.02;7.18;;;11.60;99.90;;;;;;4961913;28;20396;-89
2023/12/15 01:38:00;;;;;;;15.00;7.70;;;11.60;99.90;;;;;;4961796;28;20030;-89
2023/12/15 01:40:29;;;;;;;11.15;6.60;;;11.60;99.90;;;;;;4961658;28;20046;-88
2023/12/15 01:43:01;;;;;;;12.50;6.50;;;11.70;99.90;;;;;;4961869;28;20034;-89
2023/12/15 01:45:27;;;;;;;9.60;5.75;;;11.70;99.90;;;;;;4961746;28;20499;-89
2023/12/15 01:47:57;;;;;;;12.50;6.63;;;11.70;99.90;;;;;;4961664;28;20032;-90
2023/12/15 01:50:23;;;;;;;12.00;6.15;;;11.70;99.90;;;;;;4961789;28;20069;-90
2023/12/15 01:52:49;;;;;;;12.15;6.53;;;11.80;99.90;;;;;;4961837;28;20041;-89
2023/12/15 01:55:16;;;;;;;9.55;6.32;;;11.70;99.90;;;;;;4961539;28;20042;-89
2023/12/15 01:57:44;;;;;;;12.88;6.13;;;11.70;99.90;;;;;;4961696;28;20038;-89
2023/12/15 02:00:11;;;;;;;10.35;5.70;;;11.70;99.90;;;;;;4961698;28;20736;-88
2023/12/15 02:02:40;;;;;;;10.13;5.53;;;11.80;99.90;;;;;;4962166;28;20093;-90
2023/12/15 02:05:09;;;;;;;10.27;5.63;;;11.70;99.90;;;;;;4955663;28;20023;-88
2023/12/15 02:07:36;;;;;;;12.10;5.28;;;11.70;99.90;;;;;;4958596;28;20058;-88
2023/12/15 02:10:03;;;;;;;15.02;5.70;;;11.70;99.90;;;;;;4945117;28;20127;-88
2023/12/15 02:12:30;;;;;;;10.38;5.72;;;11.70;99.90;;;;;;4959925;28;20038;-88
2023/12/15 02:14:56;;;;;;;8.25;5.47;;;11.60;99.90;;;;;;4977334;28;20037;-89
2023/12/15 02:17:23;;;;;;;8.27;5.22;;;11.70;99.90;;;;;;4961113;28;20049;-89
2023/12/15 02:19:49;;;;;;;7.55;5.15;;;11.60;99.90;;;;;;4958100;28;20037;-89
2023/12/15 02:22:16;;;;;;;13.35;5.93;;;11.70;99.90;;;;;;4956302;28;20089;-90
2023/12/15 02:24:42;;;;;;;10.68;5.80;;;11.70;99.90;;;;;;4960812;28;20117;-88
2023/12/15 02:27:09;;;;;;;7.22;4.90;;;11.60;99.90;;;;;;4960948;28;20464;-89
2023/12/15 02:29:35;;;;;;;9.98;5.55;;;11.70;99.90;;;;;;4960967;28;20547;-89
2023/12/15 02:32:02;;;;;;;10.30;5.10;;;11.60;99.90;;;;;;4959822;28;20446;-89
2023/12/15 02:34:28;;;;;;;10.73;5.35;;;11.60;99.90;;;;;;4957772;28;20476;-89
2023/12/15 02:36:55;;;;;;;9.15;5.95;;;11.60;99.90;;;;;;4958003;28;20506;-88
2023/12/15 02:39:23;;;;;;;10.07;5.93;;;11.60;99.90;;;;;;4957890;28;20097;-89
2023/12/15 02:41:51;;;;;;;11.93;6.28;;;11.60;99.90;;;;;;4958058;28;20492;-89
2023/12/15 02:44:18;;;;;;;10.07;6.35;;;11.60;99.90;;;;;;4942108;28;20053;-88
2023/12/15 02:46:46;;;;;;;11.57;6.53;;;11.50;99.90;;;;;;4957943;28;20492;-88
2023/12/15 02:49:14;;;;;;;8.88;6.22;;;11.50;99.90;;;;;;4957964;28;20800;-88
2023/12/15 02:51:49;;;;;;;15.02;5.93;;;11.50;99.90;;;;;;4958102;28;20085;-90
2023/12/15 02:54:16;;;;;;;11.10;6.00;;;11.50;99.90;;;;;;4966844;28;20034;-90
2023/12/15 02:56:42;;;;;;;10.07;6.03;;;11.50;99.90;;;;;;4941772;28;20118;-89
2023/12/15 02:59:09;;;;;;;7.38;5.38;;;11.50;99.90;;;;;;4942047;28;20031;-89
2023/12/15 03:01:35;;;;;;;7.80;5.30;;;11.60;99.90;;;;;;4973905;28;20035;-89
2023/12/15 03:04:02;;;;;;;12.18;5.75;;;11.50;99.90;;;;;;4957950;28;20033;-89
2023/12/15 03:06:28;;;;;;;6.70;4.95;;;11.60;99.90;;;;;;4941836;28;20023;-88
2023/12/15 03:08:55;;;;;;;9.15;5.07;;;11.60;99.90;;;;;;4957758;28;20114;-89
2023/12/15 03:11:22;;;;;;;8.95;4.72;;;11.60;99.90;;;;;;4941832;28;20076;-89
2023/12/15 03:13:49;;;;;;;8.82;5.13;;;11.60;99.90;;;;;;4973683;28;20601;-89
2023/12/15 03:16:16;;;;;;;9.48;5.25;;;11.60;99.90;;;;;;4959379;28;20439;-88
2023/12/15 03:18:43;;;;;;;7.43;4.85;;;11.60;99.90;;;;;;4961276;28;20039;-89
2023/12/15 03:21:09;;;;;;;7.82;4.75;;;11.60;99.90;;;;;;4945194;28;20034;-88
2023/12/15 03:23:36;;;;;;;8.15;4.93;;;11.50;99.90;;;;;;4977166;28;20038;-89
2023/12/15 03:26:03;;;;;;;8.35;5.32;;;11.50;99.90;;;;;;4945118;28;20023;-89
2023/12/15 03:28:29;;;;;;;7.32;4.57;;;11.60;99.90;;;;;;4962481;28;20816;-89
2023/12/15 03:30:56;;;;;;;12.43;5.18;;;11.50;99.90;;;;;;4977809;28;20472;-91
2023/12/15 03:33:34;;;;;;;8.30;4.97;;;11.60;99.90;;;;;;4963931;28;20042;-90
2023/12/15 03:36:00;;;;;;;10.73;4.40;;;11.50;99.90;;;;;;4963845;28;20022;-88
2023/12/15 03:38:30;;;;;;;7.57;4.28;;;11.60;99.90;;;;;;4963701;28;20037;-88
2023/12/15 03:40:56;;;;;;;8.48;4.18;;;11.50;99.90;;;;;;4963147;28;20053;-89
2023/12/15 03:43:22;;;;;;;7.25;4.45;;;11.60;99.90;;;;;;4979199;28;20042;-89
2023/12/15 03:45:49;;;;;;;9.07;4.70;;;11.50;99.90;;;;;;4963447;28;20073;-88
2023/12/15 03:48:15;;;;;;;7.05;4.53;;;11.60;99.90;;;;;;4964013;28;20036;-89
2023/12/15 03:50:45;;;;;;;7.03;3.90;;;11.50;99.90;;;;;;4963836;28;20466;-89
2023/12/15 03:53:12;;;;;;;6.80;3.92;;;11.50;99.90;;;;;;4963764;28;20034;-88
2023/12/15 03:55:38;;;;;;;7.68;3.90;;;11.40;99.90;;;;;;4963979;28;20514;-90
2023/12/15 03:58:04;;;;;;;5.50;3.70;;;11.50;99.90;;;;;;4964075;28;20038;-90
2023/12/15 04:00:31;;;;;;;7.70;3.80;;;11.50;99.90;;;;;;4963850;28;20419;-89
2023/12/15 04:02:57;;;;;;;5.00;3.20;;;11.50;99.90;;;;;;4965116;28;20100;-88
2023/12/15 04:05:23;;;;;;;6.22;3.17;;;11.50;99.90;;;;;;4965475;28;20050;-90
2023/12/15 04:07:50;;;;;;;9.48;3.78;;;11.40;99.90;;;;;;4978004;28;20035;-90
2023/12/15 04:10:16;;;;;;;4.43;3.28;;;11.40;99.90;;;;;;4964932;28;20029;-91
2023/12/15 04:12:43;;;;;;;12.55;3.50;;;11.40;99.90;;;;;;4963823;28;20034;-91
2023/12/15 04:15:09;;;;;;;8.15;3.45;;;11.40;99.90;;;;;;4963511;28;20037;-90
2023/12/15 04:17:36;;;;;;;5.90;2.65;;;11.40;99.90;;;;;;4963860;28;20131;-91
2023/12/15 04:20:07;;;;;;;6.07;3.28;;;11.40;99.90;;;;;;4979541;28;20050;-90
2023/12/15 04:22:33;;;;;;;5.32;2.50;;;11.40;99.90;;;;;;4963445;28;20034;-92
2023/12/15 04:25:00;;;;;;;5.18;2.63;;;11.30;99.90;;;;;;4961606;28;20030;-90
2023/12/15 04:27:28;;;;;;;3.90;2.47;;;11.40;99.90;;;;;;4962228;28;20484;-92
2023/12/15 04:29:55;;;;;;;3.45;2.65;;;11.40;99.90;;;;;;4963095;28;20034;-90
2023/12/15 04:32:24;;;;;;;6.25;2.13;;;11.40;99.90;;;;;;4963277;28;20037;-89
2023/12/15 04:34:50;;;;;;;2.63;2.22;;;11.40;99.90;;;;;;4959907;28;20050;-88
2023/12/15 04:37:17;;;;;;;6.18;2.38;;;11.40;99.90;;;;;;4959689;28;20038;-89
2023/12/15 04:39:44;;;;;;;3.63;1.70;;;11.40;99.90;;;;;;4956731;29;20148;-89
2023/12/15 04:42:10;;;;;;;3.20;1.90;;;11.40;99.90;;;;;;4956507;29;20117;-88
2023/12/15 04:44:40;;;;;;;1.73;1.60;;;11.40;99.90;;;;;;4961516;28;20030;-88
2023/12/15 04:47:07;;;;;;;5.47;1.73;;;11.30;99.90;;;;;;4959406;28;20081;-88
2023/12/15 04:49:33;;;;;;;3.67;1.73;;;11.40;99.90;;;;;;4940229;29;20057;-88
2023/12/15 04:52:00;;;;;;;4.45;1.98;;;11.30;99.90;;;;;;4940333;29;20031;-89
2023/12/15 04:54:26;;;;;;;2.35;1.50;;;11.30;99.90;;;;;;4973748;28;20515;-90
2023/12/15 04:56:53;;;;;;;4.70;2.00;;;11.30;99.90;;;;;;4943213;28;20038;-89
2023/12/15 04:59:19;;;;;;;3.35;1.60;;;11.30;99.90;;;;;;4948672;28;20027;-89
2023/12/15 05:01:45;;;;;;;4.10;1.98;;;11.30;99.90;;;;;;4958807;28;20045;-89
2023/12/15 05:04:12;;;;;;;1.83;1.65;;;11.30;99.90;;;;;;4959380;28;20062;-88
2023/12/15 05:06:39;;;;;;;1.48;1.45;;;11.20;99.90;;;;;;4959053;28;20054;-87
2023/12/15 05:09:08;;;;;;;2.28;1.60;;;11.30;99.90;;;;;;4959259;28;20037;-88
2023/12/15 05:11:35;;;;;;;5.25;1.58;;;11.20;99.90;;;;;;4959113;28;20023;-88
2023/12/15 05:14:02;;;;;;;2.75;1.50;;;11.20;99.90;;;;;;4959242;28;20492;-87
2023/12/15 05:16:29;;;;;;;2.83;1.67;;;11.30;99.90;;;;;;4943362;28;20488;-88
2023/12/15 05:18:56;;;;;;;1.67;1.58;;;11.20;99.90;;;;;;4942985;28;20039;-88
2023/12/15 05:21:22;;;;;;;1.77;1.67;;;11.20;99.90;;;;;;4958984;28;20038;-88
2023/12/15 05:23:49;;;;;;;3.63;1.80;;;11.30;99.90;;;;;;4943223;28;20034;-89
2023/12/15 05:26:15;;;;;;;6.65;1.73;;;11.20;99.90;;;;;;4958840;28;20030;-88
2023/12/15 05:28:44;;;;;;;1.85;1.75;;;11.30;99.90;;;;;;4942922;28;20484;-88
2023/12/15 05:31:10;;;;;;;6.57;2.08;;;11.30;99.90;;;;;;4958780;28;20400;-89
2023/12/15 05:33:38;;;;;;;2.38;1.85;;;11.30;99.90;;;;;;4958996;28;20058;-89
2023/12/15 05:36:05;;;;;;;2.67;2.20;;;11.20;99.90;;;;;;4958685;28;20033;-89
2023/12/15 05:38:32;;;;;;;2.80;2.10;;;11.20;99.90;;;;;;4959659;28;20022;-90
2023/12/15 05:40:59;;;;;;;6.97;2.50;;;11.10;99.90;;;;;;4963679;28;20496;-89
2023/12/15 05:43:25;;;;;;;4.38;2.67;;;11.10;99.90;;;;;;4942636;28;20039;-90
2023/12/15 05:45:52;;;;;;;3.10;2.50;;;11.10;99.90;;;;;;4942758;28;20027;-90
2023/12/15 05:48:18;;;;;;;3.95;2.33;;;11.00;99.90;;;;;;4943077;28;20030;-91
2023/12/15 05:50:44;;;;;;;8.98;2.30;;;11.00;99.90;;;;;;4942570;28;20026;-89
2023/12/15 05:53:11;;;;;;;3.63;2.35;;;11.00;99.90;;;;;;4942737;28;20019;-88
2023/12/15 05:55:37;;;;;;;3.33;2.13;;;11.00;99.90;;;;;;4939442;28;20085;-89
2023/12/15 05:58:04;;;;;;;2.65;2.45;;;11.00;99.90;;;;;;4923531;29;20031;-87
2023/12/15 06:00:31;;;;;;;3.25;2.65;;;11.00;99.90;;;;;;4939590;29;20115;-91
2023/12/15 06:02:57;;;;;;;2.83;2.50;;;11.10;99.90;;;;;;4939442;28;20042;-90
2023/12/15 06:05:24;;;;;;;3.92;2.30;;;11.10;99.90;;;;;;4958837;28;20023;-89
2023/12/15 06:07:50;;;;;;;2.53;2.40;;;11.10;99.90;;;;;;4939983;28;20063;-89
2023/12/15 06:10:17;;;;;;;3.13;2.85;;;11.10;99.90;;;;;;4942586;28;20077;-88
2023/12/15 06:12:44;;;;;;;4.70;2.70;;;11.10;99.90;;;;;;4942575;28;20508;-90
2023/12/15 06:15:11;;;;;;;5.53;2.67;;;11.00;99.90;;;;;;4939252;29;20031;-88
2023/12/15 06:17:39;;;;;;;6.53;2.47;;;11.10;99.90;;;;;;4942320;29;20027;-89
2023/12/15 06:20:07;;;;;;;3.10;2.50;;;11.10;99.90;;;;;;4919144;29;20039;-90
2023/12/15 06:22:33;;;;;;;5.90;2.20;;;11.10;99.90;;;;;;4903182;29;20497;-89
2023/12/15 06:25:00;;;;;;;8.48;2.90;;;11.20;99.90;;;;;;4900511;29;20063;-89
2023/12/15 06:27:26;;;;;;;3.42;3.13;;;11.20;99.90;;;;;;4884997;29;20035;-90
2023/12/15 06:29:53;;;;;;;4.35;2.90;;;11.20;99.90;;;;;;4900965;29;20119;-88
2023/12/15 06:32:19;;;;;;;6.95;3.00;;;11.20;99.90;;;;;;4884915;29;20040;-88
2023/12/15 06:34:46;;;;;;;4.32;2.78;;;11.20;99.90;;;;;;4900476;29;20421;-87
2023/12/15 06:37:12;;;;;;;5.10;3.20;;;11.20;99.90;;;;;;4900171;29;20179;-85
2023/12/15 06:39:39;;;;;;;4.60;3.20;;;11.30;99.90;;;;;;4903366;29;20044;-86
2023/12/15 06:42:05;;;;;;;6.07;3.17;;;11.30;99.90;;;;;;4918943;29;20036;-86
2023/12/15 06:44:32;;;;;;;12.63;3.78;;;11.30;99.90;;;;;;4919135;29;20036;-85
2023/12/15 06:46:58;;;;;;;6.18;3.10;;;11.30;99.90;;;;;;4919338;29;20046;-87
2023/12/15 06:49:31;;;;;;;3.50;3.13;;;11.40;99.90;;;;;;4919000;29;20035;-86
2023/12/15 06:52:00;;;;;;;4.53;2.70;;;11.40;99.90;;;;;;4922144;29;20066;-86
2023/12/15 06:54:27;;;;;;;7.18;3.40;;;11.50;99.90;;;;;;4922910;29;20028;-86
2023/12/15 06:56:59;;;;;;;4.82;3.17;;;11.50;99.90;;;;;;4916111;28;20043;-85
2023/12/15 06:59:29;;;;;;;6.05;3.40;;;11.60;99.90;;;;;;4945460;28;20034;-87
2023/12/15 07:01:55;;;;;;;6.78;3.90;;;11.50;99.90;;;;;;4945246;28;20027;-87
2023/12/15 07:04:28;;;;;;;6.25;3.30;;;11.60;99.90;;;;;;4945354;28;20496;-86
2023/12/15 07:06:54;;;;;;;16.42;3.85;;;11.60;99.90;;;;;;4945266;28;20415;-84
2023/12/15 07:09:20;;;;;;;3.83;2.90;;;11.60;99.90;;;;;;4945451;28;20031;-85
2023/12/15 07:11:47;;;;;;;5.18;3.17;;;11.60;99.90;;;;;;4945239;28;20058;-85
2023/12/15 07:14:13;;;;;;;8.45;3.17;;;11.60;99.90;;;;;;4945046;28;20058;-86
2023/12/15 07:16:39;;;;;;;6.57;3.10;;;11.60;99.90;;;;;;4945218;28;20729;-85
2023/12/15 07:19:06;;;;;;;3.10;2.80;;;11.60;99.90;;;;;;4945451;28;20109;-87
2023/12/15 07:21:33;;;;;;;4.78;3.10;;;11.50;99.90;;;;;;4946607;28;20034;-88
2023/12/15 07:23:59;;;;;;;4.72;3.20;;;11.50;99.90;;;;;;4945273;28;20109;-88
2023/12/15 07:26:26;;;;;;;15.00;4.00;;;11.50;99.90;;;;;;4944977;28;20034;-90
2023/12/15 07:28:56;;;;;;;6.15;3.63;;;11.50;99.90;;;;;;4945307;28;20038;-93
2023/12/15 07:31:26;;;;;;;12.80;4.35;;;11.60;99.90;;;;;;4945456;28;20121;-89
2023/12/15 07:33:57;;;;;;;10.82;4.30;;;11.60;99.90;;;;;;4961244;28;20035;-91
2023/12/15 07:36:24;;;;;;;7.18;4.07;;;11.80;99.90;;;;;;4944979;28;20026;-89
2023/12/15 07:38:50;;;;;;;8.43;4.35;;;11.80;99.90;;;;;;4945079;28;20113;-89
2023/12/15 07:41:17;;;;;;;12.02;4.13;;;11.80;99.90;;;;;;4957716;28;20051;-91
2023/12/15 07:43:44;;;;;;;12.13;3.78;;;11.90;99.90;;;;;;4960791;28;20066;-92
2023/12/15 07:46:19;;;;;;;6.18;3.38;;;11.80;99.90;;;;;;4960649;28;20030;-89
2023/12/15 07:48:46;;;;;;;8.20;3.70;;;11.90;99.90;;;;;;4960557;28;20035;-91
2023/12/15 07:51:19;;;;;;;7.53;3.70;;;11.90;99.90;;;;;;4960908;28;20031;-90
2023/12/15 07:53:49;;;;;;;6.40;3.77;;;12.00;99.90;;;;;;4961151;28;20086;-90
2023/12/15 07:56:33;;;;;;;5.43;3.40;;;12.20;99.90;;;;;;4960954;28;20113;-90
2023/12/15 07:59:00;;;;;;;10.48;4.13;;;12.30;99.90;;;;;;4960743;28;20035;-91
2023/12/15 08:01:30;;;;;;;6.80;3.72;;;12.30;99.90;;;;;;4967811;28;20027;-90
2023/12/15 08:03:56;;;;;;;5.93;3.78;;;12.20;99.90;;;;;;4974395;28;20032;-90
2023/12/15 08:06:22;;;;;;;3.80;3.55;;;12.20;99.90;;;;;;4971570;28;20030;-89
2023/12/15 08:08:51;;;;;;;4.15;3.28;;;12.20;99.90;;;;;;4971864;28;20066;-90
2023/12/15 08:11:19;;;;;;;5.22;3.63;;;12.30;99.90;;;;;;4976250;28;20030;-90
2023/12/15 08:13:46;;;;;;;8.38;3.55;;;12.30;99.90;;;;;;4972280;28;20030;-90
2023/12/15 08:16:13;;;;;;;7.25;3.45;;;12.40;99.90;;;;;;4970684;28;20041;-91
2023/12/15 08:18:45;;;;;;;10.73;4.32;;;12.50;99.90;;;;;;4976062;28;20057;-89
2023/12/15 08:21:15;;;;;;;5.88;4.47;;;12.60;99.90;;;;;;4976147;28;20061;-90
2023/12/15 08:23:42;;;;;;;5.53;4.90;;;12.60;99.90;;;;;;4970862;29;20071;-91
2023/12/15 08:26:09;;;;;;;8.15;5.80;;;12.60;99.90;;;;;;4929609;29;20054;-89
2023/12/15 08:28:36;;;;;;;8.70;6.60;;;12.70;99.90;;;;;;4929605;29;20054;-90
2023/12/15 08:31:02;;;;;;;8.60;6.10;;;12.80;99.90;;;;;;4934932;29;20031;-90
2023/12/15 08:33:29;;;;;;;6.93;6.30;;;12.80;99.90;;;;;;4937210;29;20042;-89
2023/12/15 08:35:55;;;;;;;7.38;6.88;;;12.90;99.90;;;;;;4936092;29;20104;-90
2023/12/15 08:38:22;;;;;;;7.50;7.00;;;13.00;99.90;;;;;;4953856;29;20039;-90
2023/12/15 08:40:48;;;;;;;14.00;7.97;;;13.00;99.90;;;;;;4936060;29;20547;-90
2023/12/15 08:43:14;;;;;;;8.15;7.68;;;13.00;99.90;;;;;;4932421;29;20051;-89
2023/12/15 08:45:41;;;;;;;10.52;9.15;;;13.20;99.90;;;;;;4932422;29;20019;-90
2023/12/15 08:48:08;;;;;;;13.48;10.20;;;13.20;99.90;;;;;;4928652;29;20043;-91
2023/12/15 08:50:34;;;;;;;11.38;10.23;;;13.30;99.90;;;;;;4930210;29;20034;-90
2023/12/15 08:53:02;;;;;;;12.35;11.10;;;13.30;99.90;;;;;;4948592;29;20051;-90
2023/12/15 08:55:28;;;;;;;12.88;11.88;;;13.50;99.90;;;;;;4930942;29;20067;-89
2023/12/15 08:57:54;;;;;;;12.48;11.70;;;13.60;99.90;;;;;;4937179;29;20122;-89
2023/12/15 09:00:20;;;;;;;12.80;12.00;;;13.70;99.90;;;;;;4937241;29;20039;-89
2023/12/15 09:02:47;;;;;;;13.00;11.90;;;13.70;99.90;;;;;;4937060;29;20040;-89
2023/12/15 09:05:14;;;;;;;13.18;12.02;;;13.70;99.90;;;;;;4937283;29;20020;-84
2023/12/15 09:07:40;;;;;;;15.13;12.13;;;13.70;99.90;;;;;;4935892;29;20179;-85
2023/12/15 09:10:07;;;;;;;12.15;11.35;;;13.60;99.90;;;;;;4936366;29;20124;-88
2023/12/15 09:12:34;;;;;;;13.60;12.55;;;13.60;99.90;;;;;;4936318;29;20067;-88
2023/12/15 09:15:03;;;;;;;13.23;12.23;;;13.70;99.90;;;;;;4935534;29;20124;-87
2023/12/15 09:17:29;;;;;;;14.52;13.02;;;13.70;99.90;;;;;;4936058;29;20046;-86
2023/12/15 09:19:56;;;;;;;13.90;12.60;;;13.80;99.90;;;;;;4935969;29;20087;-86
2023/12/15 09:22:22;;;;;;;14.18;12.90;;;13.90;99.90;;;;;;4920150;29;20151;-88
2023/12/15 09:24:48;;;;;;;13.75;12.82;;;13.90;99.90;;;;;;4940263;29;20035;-89
2023/12/15 09:27:16;;;;;;;13.98;13.07;;;13.90;99.90;;;;;;4940064;29;20027;-86
2023/12/15 09:29:42;;;;;;;14.35;13.13;;;13.90;99.90;;;;;;4940432;29;20129;-88
2023/12/15 09:32:08;;;;;;;14.40;13.35;;;14.00;99.90;;;;;;4939933;29;20035;-89
2023/12/15 09:34:35;;;;;;;14.48;13.32;;;13.90;99.90;;;;;;4941674;29;20027;-89
2023/12/15 09:37:02;;;;;;;14.90;13.60;;;14.00;99.90;;;;;;4940334;28;20095;-87
2023/12/15 09:39:28;;;;;;;14.30;13.40;;;14.00;99.90;;;;;;4942393;28;20058;-89
2023/12/15 09:41:55;;;;;;;15.38;14.10;;;13.90;99.90;;;;;;4959800;28;20403;-87
2023/12/15 09:44:21;;;;;;;15.02;14.00;;;14.00;99.90;;;;;;4965686;28;20029;-88
2023/12/15 09:46:48;;;;;;;15.45;13.95;;;14.10;99.90;;;;;;4962447;28;20030;-88
2023/12/15 09:49:17;;;;;;;15.05;13.68;;;14.20;99.90;;;;;;4963423;28;20069;-89
2023/12/15 09:51:49;;;;;;;14.70;13.70;;;14.40;99.90;;;;;;4963315;28;20475;-87
2023/12/15 09:54:17;;;;;;;15.65;14.13;;;14.50;99.90;;;;;;4962277;28;20062;-87
2023/12/15 09:56:44;;;;;;;15.07;14.18;;;14.70;99.90;;;;;;4962108;28;20542;-90
2023/12/15 09:59:10;;;;;;;16.55;15.40;;;15.00;99.90;;;;;;4965107;28;20023;-91
2023/12/15 10:01:37;;;;;;;17.08;15.57;;;15.20;99.90;;;;;;4962688;28;20395;-89
2023/12/15 10:04:05;;;;;;;17.52;16.10;;;15.40;99.90;;;;;;4962373;28;20030;-90
2023/12/15 10:06:36;;;;;;;18.77;16.83;;;15.30;99.90;;;;;;4962437;28;20479;-91
2023/12/15 10:09:13;;;;;;;18.85;17.15;;;15.30;99.90;;;;;;4961538;28;20065;-89
2023/12/15 10:11:40;;;;;;;18.05;16.77;;;15.20;99.90;;;;;;4961708;28;20026;-89
2023/12/15 10:14:07;;;;;;;18.55;17.20;;;15.30;99.90;;;;;;4961661;28;20026;-90
2023/12/15 10:16:35;;;;;;;19.63;17.98;;;15.40;99.90;;;;;;4961399;28;20036;-90
2023/12/15 10:19:06;;;;;;;19.65;18.30;;;15.40;99.90;;;;;;4961394;28;20081;-92
2023/12/15 10:21:35;;;;;;;20.10;18.38;;;15.30;99.90;;;;;;4961361;28;20038;-91
2023/12/15 10:24:20;;;;;;;20.20;18.83;;;15.30;99.90;;;;;;4961395;28;20480;-89
2023/12/15 10:26:47;;;;;;;20.85;19.10;;;15.30;99.90;;;;;;4963754;28;20034;-92
2023/12/15 10:29:14;;;;;;;19.55;18.35;;;15.20;99.90;;;;;;4965420;28;20066;-92
2023/12/15 10:31:42;;;;;;;19.83;18.48;;;15.10;99.90;;;;;;4965420;28;20027;-90
2023/12/15 10:34:08;;;;;;;19.60;18.30;;;14.90;99.90;;;;;;4965501;28;20479;-91
2023/12/15 10:36:44;;;;;;;20.50;18.95;;;14.90;99.90;;;;;;4965531;28;20407;-89
2023/12/15 10:39:13;;;;;;;21.27;19.77;;;14.80;99.90;;;;;;4965391;28;20489;-90
2023/12/15 10:41:41;;;;;;;20.80;19.60;;;14.70;99.90;;;;;;4965321;28;20044;-90
2023/12/15 10:44:09;;;;;;;20.80;19.55;;;14.80;99.90;;;;;;4966644;28;20060;-89
2023/12/15 10:46:42;;;;;;;21.90;20.10;;;14.90;99.90;;;;;;4966933;28;20019;-91
2023/12/15 10:49:10;;;;;;;21.50;19.90;;;14.80;99.90;;;;;;4967299;28;20515;-90
2023/12/15 10:51:39;;;;;;;22.42;20.60;;;15.00;99.90;;;;;;4981186;28;20080;-89
2023/12/15 10:54:08;;;;;;;22.15;20.38;;;15.00;99.90;;;;;;4965062;28;20031;-88
2023/12/15 10:56:37;;;;;;;22.40;20.60;;;14.90;99.90;;;;;;4965194;28;20495;-91
2023/12/15 10:59:05;;;;;;;23.08;21.13;;;14.90;99.90;;;;;;4964782;28;20104;-90
2023/12/15 11:01:35;;;;;;;22.20;20.50;;;14.80;99.90;;;;;;4964685;28;20034;-91
2023/12/15 11:04:01;;;;;;;22.65;20.83;;;14.70;99.90;;;;;;4965257;28;20022;-91
2023/12/15 11:06:32;;;;;;;21.95;20.25;;;14.70;99.90;;;;;;4964543;28;20099;-89
2023/12/15 11:09:07;;;;;;;22.23;20.60;;;14.50;99.90;;;;;;4965204;28;20027;-93
2023/12/15 11:11:33;;;;;;;21.85;20.13;;;14.40;99.90;;;;;;4965262;28;20037;-92
2023/12/15 11:14:04;;;;;;;23.30;20.50;;;14.50;99.90;;;;;;4965314;28;20380;-90
2023/12/15 11:16:34;;;;;;;22.38;20.52;;;14.50;99.90;;;;;;4965005;28;20026;-91
2023/12/15 11:19:02;;;;;;;22.13;20.60;;;14.50;99.90;;;;;;4981162;28;20117;-91
2023/12/15 11:21:29;;;;;;;22.33;20.63;;;14.60;99.90;;;;;;4964593;28;20026;-91
2023/12/15 11:24:05;;;;;;;22.98;21.13;;;14.50;99.90;;;;;;4965165;28;20121;-91
2023/12/15 11:26:43;;;;;;;22.77;21.20;;;14.50;99.90;;;;;;4964728;28;20038;-90
2023/12/15 11:29:19;;;;;;;24.10;22.10;;;14.40;99.90;;;;;;4964768;28;20026;-90
2023/12/15 11:31:46;;;;;;;23.88;21.92;;;14.30;99.90;;;;;;4981414;28;20061;-92
2023/12/15 11:34:40;;;;;;;24.52;22.38;;;14.40;99.90;;;;;;4966934;28;20212;-91
2023/12/15 11:37:07;;;;;;;25.00;23.05;;;14.40;99.90;;;;;;4981703;28;20060;-91
2023/12/15 11:39:35;;;;;;;25.40;22.90;;;14.40;99.90;;;;;;4965016;28;20058;-93
2023/12/15 11:42:03;;;;;;;24.40;22.58;;;14.40;99.90;;;;;;4946216;28;20561;-90
2023/12/15 11:44:34;;;;;;;24.40;22.88;;;14.50;99.90;;;;;;4947049;28;20035;-92
2023/12/15 11:47:04;;;;;;;25.45;23.10;;;14.40;99.90;;;;;;4946279;28;20041;-91
2023/12/15 11:49:30;;;;;;;24.02;22.38;;;14.40;99.90;;;;;;4945548;28;20071;-90
2023/12/15 11:51:57;;;;;;;24.67;22.38;;;14.40;99.90;;;;;;4962904;28;20039;-91
2023/12/15 11:54:25;;;;;;;23.88;21.60;;;14.50;99.90;;;;;;4945708;28;20042;-91
2023/12/15 11:56:56;;;;;;;25.38;22.70;;;14.40;99.90;;;;;;4946521;28;20027;-89
2023/12/15 11:59:22;;;;;;;23.88;21.48;;;14.40;99.90;;;;;;4947403;28;20050;-90
2023/12/15 12:01:51;;;;;;;22.58;20.77;;;14.30;99.90;;;;;;4946887;28;20027;-90
2023/12/15 12:04:18;;;;;;;24.05;22.05;;;14.30;99.90;;;;;;4963088;28;20415;-90
2023/12/15 12:06:46;;;;;;;23.83;21.88;;;14.20;99.90;;;;;;4963671;28;20050;-89
2023/12/15 12:09:13;;;;;;;23.88;21.95;;;14.30;99.90;;;;;;4962085;28;20632;-91
2023/12/15 12:11:39;;;;;;;24.02;21.85;;;14.30;99.90;;;;;;4944872;28;20489;-86
2023/12/15 12:14:10;;;;;;;22.85;21.15;;;14.20;99.90;;;;;;4957276;28;20071;-86
2023/12/15 12:16:37;;;;;;;24.30;21.95;;;14.20;99.90;;;;;;4940823;29;20075;-86
2023/12/15 12:19:04;;;;;;;25.20;23.02;;;14.30;99.90;;;;;;4940857;29;20423;-86
2023/12/15 12:21:32;;;;;;;26.73;22.60;;;14.30;99.90;;;;;;4941006;29;20031;-87
2023/12/15 12:23:59;;;;;;;24.70;22.73;;;14.40;99.90;;;;;;4924931;29;20027;-87
2023/12/15 12:26:28;;;;;;;24.92;22.73;;;14.40;99.90;;;;;;4940793;29;20385;-88
2023/12/15 12:28:56;;;;;;;24.85;22.73;;;14.40;99.90;;;;;;4941120;28;20040;-88
2023/12/15 12:31:22;;;;;;;25.83;23.58;;;14.40;99.90;;;;;;4940952;29;20027;-86
2023/12/15 12:33:50;;;;;;;25.25;23.35;;;14.30;99.90;;;;;;4940755;29;20031;-87
2023/12/15 12:36:17;;;;;;;25.20;23.17;;;14.20;99.90;;;;;;4941012;29;20031;-89
2023/12/15 12:38:47;;;;;;;25.75;23.63;;;14.30;99.90;;;;;;4924919;28;20405;-89
2023/12/15 12:41:14;;;;;;;25.33;23.05;;;14.30;99.90;;;;;;4951061;29;20051;-89